createdAt,value
2023-05-03T00:01:38.200Z,8.80
2023-05-03T00:04:05.111Z,8.80
2023-05-03T00:06:31.997Z,8.80
2023-05-03T00:08:58.733Z,8.80
2023-05-03T00:11:26.035Z,8.70
2023-05-03T00:13:52.725Z,8.50
2023-05-03T00:16:20.638Z,8.30
2023-05-03T00:18:49.069Z,8.20
2023-05-03T00:21:16.646Z,8.00
2023-05-03T00:23:43.299Z,7.80
2023-05-03T00:26:09.967Z,7.70
2023-05-03T00:28:36.617Z,7.50
2023-05-03T00:31:11.320Z,7.40
2023-05-03T00:33:38.802Z,7.30
2023-05-03T00:36:14.409Z,7.20
2023-05-03T00:38:42.231Z,7.10
2023-05-03T00:41:10.875Z,7.00
2023-05-03T00:43:37.937Z,7.00
2023-05-03T00:46:15.991Z,6.90
2023-05-03T00:48:46.594Z,6.80
2023-05-03T00:51:15.055Z,6.70
2023-05-03T00:53:42.707Z,6.70
2023-05-03T00:56:09.938Z,6.70
2023-05-03T00:58:39.963Z,6.60
2023-05-03T01:01:08.026Z,3.90
2023-05-03T01:03:37.718Z,6.50
2023-05-03T01:06:33.079Z,6.40
2023-05-03T01:09:03.213Z,6.30
2023-05-03T01:11:41.798Z,6.30
2023-05-03T01:14:28.685Z,6.30
2023-05-03T01:17:02.850Z,6.10
2023-05-03T01:19:35.688Z,6.20
2023-05-03T01:22:11.169Z,6.10
2023-05-03T01:24:40.315Z,6.00
2023-05-03T01:27:07.043Z,6.00
2023-05-03T01:29:33.823Z,5.90
2023-05-03T01:32:03.894Z,5.80
2023-05-03T01:34:49.891Z,5.80
2023-05-03T01:37:17.251Z,5.80
2023-05-03T01:39:53.199Z,5.70
2023-05-03T01:42:24.019Z,5.60
2023-05-03T01:44:50.905Z,5.60
2023-05-03T01:47:17.651Z,5.60
2023-05-03T01:49:44.352Z,5.60
2023-05-03T01:52:11.172Z,5.50
2023-05-03T01:54:37.899Z,5.50
2023-05-03T01:57:05.203Z,5.40
2023-05-03T01:59:31.918Z,5.40
2023-05-03T02:01:58.602Z,5.40
2023-05-03T02:04:25.337Z,5.50
2023-05-03T02:06:52.158Z,5.40
2023-05-03T02:09:19.019Z,5.40
2023-05-03T02:11:45.846Z,5.40
2023-05-03T02:14:12.581Z,5.40
2023-05-03T02:16:40.025Z,5.40
2023-05-03T02:19:07.868Z,5.40
2023-05-03T02:21:36.796Z,5.40
2023-05-03T02:24:03.825Z,5.50
2023-05-03T02:26:30.468Z,5.50
2023-05-03T02:28:58.104Z,5.50
2023-05-03T02:31:25.362Z,5.50
2023-05-03T02:33:52.100Z,5.50
2023-05-03T02:36:18.800Z,5.40
2023-05-03T02:38:45.416Z,5.30
2023-05-03T02:41:12.140Z,5.30
2023-05-03T02:43:38.828Z,5.30
2023-05-03T02:46:05.938Z,5.30
2023-05-03T02:48:32.684Z,5.30
2023-05-03T02:50:59.392Z,5.20
2023-05-03T02:53:26.108Z,5.30
2023-05-03T02:55:52.770Z,5.20
2023-05-03T02:58:19.490Z,5.20
2023-05-03T03:00:46.322Z,5.20
2023-05-03T03:03:13.060Z,5.10
2023-05-03T03:05:39.777Z,5.10
2023-05-03T03:08:06.738Z,5.10
2023-05-03T03:10:33.480Z,5.10
2023-05-03T03:13:00.186Z,5.00
2023-05-03T03:15:26.917Z,5.00
2023-05-03T03:17:57.716Z,4.90
2023-05-03T03:20:24.671Z,4.90
2023-05-03T03:22:51.473Z,4.80
2023-05-03T03:25:18.186Z,4.40
2023-05-03T03:27:44.809Z,4.70
2023-05-03T03:30:11.855Z,4.80
2023-05-03T03:32:38.625Z,4.70
2023-05-03T03:35:05.724Z,4.70
2023-05-03T03:37:32.394Z,4.60
2023-05-03T03:39:59.051Z,4.60
2023-05-03T03:42:25.900Z,4.30
2023-05-03T03:44:52.569Z,4.50
2023-05-03T03:47:19.361Z,4.40
2023-05-03T03:49:46.148Z,4.40
2023-05-03T03:52:12.901Z,4.30
2023-05-03T03:54:39.626Z,4.30
2023-05-03T03:57:06.400Z,4.30
2023-05-03T03:59:33.003Z,4.30
2023-05-03T04:01:59.941Z,4.30
2023-05-03T04:04:26.826Z,4.30
2023-05-03T04:06:53.612Z,4.30
2023-05-03T04:09:21.448Z,4.30
2023-05-03T04:11:48.174Z,4.30
2023-05-03T04:14:14.837Z,4.30
2023-05-03T04:16:41.530Z,4.30
2023-05-03T04:19:08.267Z,4.30
2023-05-03T04:21:35.064Z,4.20
2023-05-03T04:24:04.663Z,4.20
2023-05-03T04:26:32.437Z,4.20
2023-05-03T04:28:59.836Z,4.20
2023-05-03T04:31:26.962Z,4.20
2023-05-03T04:33:53.540Z,4.20
2023-05-03T04:36:22.689Z,4.20
2023-05-03T04:38:49.312Z,4.30
2023-05-03T04:41:17.270Z,4.30
2023-05-03T04:43:43.923Z,4.40
2023-05-03T04:46:10.780Z,4.40
2023-05-03T04:48:37.413Z,4.40
2023-05-03T04:51:04.646Z,4.40
2023-05-03T04:53:31.396Z,4.50
2023-05-03T04:55:58.062Z,4.60
2023-05-03T04:58:24.820Z,4.80
2023-05-03T05:00:51.584Z,4.80
2023-05-03T05:03:18.320Z,5.00
2023-05-03T05:05:45.017Z,5.30
2023-05-03T05:08:11.978Z,5.40
2023-05-03T05:10:41.480Z,5.40
2023-05-03T05:13:08.212Z,5.60
2023-05-03T05:15:39.459Z,6.00
2023-05-03T05:18:06.315Z,7.00
2023-05-03T05:20:33.072Z,7.00
2023-05-03T05:22:59.726Z,7.50
2023-05-03T05:25:27.235Z,7.90
2023-05-03T05:27:53.930Z,8.50
2023-05-03T05:30:20.760Z,9.30
2023-05-03T05:32:47.546Z,8.80
2023-05-03T05:35:17.577Z,9.00
2023-05-03T05:37:44.318Z,9.10
2023-05-03T05:40:12.404Z,9.10
2023-05-03T05:42:39.182Z,9.00
2023-05-03T05:45:07.832Z,8.70
2023-05-03T05:47:34.533Z,8.50
2023-05-03T05:50:01.452Z,8.30
2023-05-03T05:52:28.265Z,8.20
2023-05-03T05:54:55.332Z,8.00
2023-05-03T05:57:22.012Z,8.10
2023-05-03T05:59:48.659Z,8.10
2023-05-03T06:02:16.958Z,8.20
2023-05-03T06:04:44.655Z,8.30
2023-05-03T06:07:11.396Z,8.30
2023-05-03T06:09:38.137Z,8.40
2023-05-03T06:12:04.900Z,8.40
2023-05-03T06:14:31.550Z,8.60
2023-05-03T06:16:59.862Z,8.70
2023-05-03T06:19:26.534Z,8.80
2023-05-03T06:21:53.211Z,8.90
2023-05-03T06:24:21.263Z,9.00
2023-05-03T06:26:48.496Z,9.10
2023-05-03T06:29:15.236Z,9.40
2023-05-03T06:31:42.085Z,9.50
2023-05-03T06:34:10.507Z,9.60
2023-05-03T06:36:37.815Z,9.70
2023-05-03T06:39:04.672Z,9.90
2023-05-03T06:41:33.958Z,10.00
2023-05-03T06:44:00.638Z,10.00
2023-05-03T06:46:28.449Z,10.10
2023-05-03T06:48:57.466Z,7.50
2023-05-03T06:51:28.097Z,10.40
2023-05-03T06:53:56.248Z,10.40
2023-05-03T06:56:23.662Z,10.50
2023-05-03T06:58:50.610Z,10.60
2023-05-03T07:01:19.114Z,10.60
2023-05-03T07:03:47.131Z,10.60
2023-05-03T07:06:14.036Z,10.60
2023-05-03T07:08:40.797Z,10.80
2023-05-03T07:11:07.508Z,10.90
2023-05-03T07:13:34.202Z,11.20
2023-05-03T07:16:03.409Z,11.30
2023-05-03T07:18:30.498Z,11.70
2023-05-03T07:20:57.258Z,11.80
2023-05-03T07:23:23.997Z,11.90
2023-05-03T07:25:50.636Z,11.90
2023-05-03T07:28:17.350Z,11.90
2023-05-03T07:30:44.112Z,12.00
2023-05-03T07:33:10.983Z,12.10
2023-05-03T07:35:37.786Z,12.10
2023-05-03T07:38:04.478Z,12.30
2023-05-03T07:40:33.288Z,12.30
2023-05-03T07:43:00.508Z,12.30
2023-05-03T07:45:27.552Z,12.30
2023-05-03T07:47:56.500Z,12.30
2023-05-03T07:50:23.262Z,12.30
2023-05-03T07:52:51.757Z,12.40
2023-05-03T07:55:20.011Z,12.50
2023-05-03T07:57:46.714Z,12.70
2023-05-03T08:00:14.318Z,12.70
2023-05-03T08:02:41.539Z,10.60
2023-05-03T08:05:09.747Z,13.00
2023-05-03T08:10:04.509Z,13.00
2023-05-03T08:12:31.331Z,13.00
2023-05-03T08:14:58.050Z,13.10
2023-05-03T08:17:24.777Z,13.20
2023-05-03T08:19:52.210Z,13.30
2023-05-03T08:22:18.871Z,13.50
2023-05-03T08:24:45.660Z,13.70
2023-05-03T08:27:12.792Z,13.90
2023-05-03T08:29:39.505Z,14.20
2023-05-03T08:32:06.275Z,14.30
2023-05-03T08:34:33.143Z,14.50
2023-05-03T08:36:59.956Z,14.70
2023-05-03T08:39:26.858Z,15.00
2023-05-03T08:41:54.797Z,15.00
2023-05-03T08:44:23.212Z,15.40
2023-05-03T08:46:50.347Z,15.40
2023-05-03T08:49:18.362Z,15.40
2023-05-03T08:51:49.748Z,15.50
2023-05-03T08:54:20.530Z,15.30
2023-05-03T08:56:47.763Z,15.00
2023-05-03T08:59:17.053Z,15.30
2023-05-03T09:01:43.758Z,12.80
2023-05-03T09:04:11.796Z,15.70
2023-05-03T09:06:38.993Z,16.00
2023-05-03T09:09:08.062Z,16.20
2023-05-03T09:11:36.666Z,16.40
2023-05-03T09:14:15.413Z,16.50
2023-05-03T09:16:44.634Z,15.10
2023-05-03T09:19:13.538Z,16.40
2023-05-03T09:21:41.694Z,16.50
2023-05-03T09:24:17.492Z,16.80
2023-05-03T09:26:45.577Z,17.10
2023-05-03T09:29:28.996Z,17.30
2023-05-03T09:32:05.765Z,17.40
2023-05-03T09:34:33.584Z,17.50
2023-05-03T09:37:00.288Z,17.40
2023-05-03T09:39:27.528Z,17.80
2023-05-03T09:41:54.472Z,18.60
2023-05-03T09:44:41.374Z,19.70
2023-05-03T09:47:08.384Z,21.50
2023-05-03T09:49:44.528Z,22.00
2023-05-03T09:52:11.369Z,21.60
2023-05-03T09:54:38.787Z,21.10
2023-05-03T09:57:07.444Z,21.00
2023-05-03T09:59:35.349Z,20.90
2023-05-03T10:02:05.948Z,20.40
2023-05-03T10:04:43.588Z,19.90
2023-05-03T10:07:14.610Z,19.20
2023-05-03T10:09:46.655Z,19.20
2023-05-03T10:12:17.036Z,20.00
2023-05-03T10:14:45.779Z,21.80
2023-05-03T10:17:16.634Z,23.90
2023-05-03T10:20:06.967Z,25.50
2023-05-03T10:23:04.333Z,26.40
2023-05-03T10:25:32.953Z,27.00
2023-05-03T10:28:03.933Z,27.60
2023-05-03T10:30:32.401Z,28.40
2023-05-03T10:33:19.889Z,28.90
2023-05-03T10:35:53.078Z,29.50
2023-05-03T10:38:26.089Z,30.20
2023-05-03T10:40:55.031Z,30.70
2023-05-03T10:43:37.382Z,30.70
2023-05-03T10:46:06.496Z,31.10
2023-05-03T10:48:43.547Z,31.20
2023-05-03T10:51:33.118Z,29.80
2023-05-03T10:53:59.996Z,27.80
2023-05-03T10:56:26.722Z,26.10
2023-05-03T10:58:56.805Z,24.90
2023-05-03T11:01:25.173Z,24.10
2023-05-03T11:04:26.354Z,23.60
2023-05-03T11:06:56.753Z,23.50
2023-05-03T11:09:32.460Z,23.80
2023-05-03T11:11:59.528Z,24.80
2023-05-03T11:14:26.421Z,26.10
2023-05-03T11:16:57.210Z,27.70
2023-05-03T11:19:24.939Z,28.80
2023-05-03T11:21:52.168Z,30.30
2023-05-03T11:24:19.030Z,31.40
2023-05-03T11:26:45.919Z,32.50
2023-05-03T11:29:14.618Z,33.40
2023-05-03T11:31:43.192Z,32.20
2023-05-03T11:34:11.518Z,30.90
2023-05-03T11:36:38.254Z,30.60
2023-05-03T11:39:05.799Z,30.60
2023-05-03T11:41:32.790Z,30.60
2023-05-03T11:44:14.522Z,31.30
2023-05-03T11:46:42.813Z,31.60
2023-05-03T11:49:10.152Z,28.50
2023-05-03T11:51:37.110Z,27.80
2023-05-03T11:54:16.936Z,27.20
2023-05-03T11:56:52.786Z,26.50
2023-05-03T11:59:20.036Z,27.40
2023-05-03T12:01:49.451Z,28.00
2023-05-03T12:04:17.296Z,29.30
2023-05-03T12:06:52.835Z,30.40
2023-05-03T12:09:22.265Z,30.60
2023-05-03T12:14:17.466Z,31.70
2023-05-03T12:16:53.755Z,32.00
2023-05-03T12:19:25.967Z,31.80
2023-05-03T12:22:09.493Z,32.40
2023-05-03T12:24:40.026Z,32.70
2023-05-03T12:27:08.629Z,31.00
2023-05-03T12:29:35.950Z,28.50
2023-05-03T12:32:03.820Z,26.90
2023-05-03T12:34:33.823Z,25.20
2023-05-03T12:37:04.985Z,24.50
2023-05-03T12:39:32.976Z,26.20
2023-05-03T12:44:34.930Z,30.40
2023-05-03T12:47:02.965Z,32.20
2023-05-03T12:49:30.136Z,32.90
2023-05-03T12:52:18.707Z,32.90
2023-05-03T12:54:49.283Z,33.30
2023-05-03T12:57:22.983Z,33.70
2023-05-03T12:59:52.581Z,33.00
2023-05-03T13:04:58.513Z,34.60
2023-05-03T13:07:29.501Z,34.00
2023-05-03T13:12:27.588Z,34.70
2023-05-03T13:14:56.121Z,35.00
2023-05-03T13:17:23.402Z,35.60
2023-05-03T13:19:52.264Z,36.40
2023-05-03T13:22:19.310Z,36.60
2023-05-03T13:24:47.864Z,36.40
2023-05-03T13:27:15.747Z,37.00
2023-05-03T13:29:42.592Z,36.80
2023-05-03T13:32:09.712Z,36.30
2023-05-03T13:34:39.546Z,36.30
2023-05-03T13:37:06.425Z,36.30
2023-05-03T13:39:33.223Z,36.40
2023-05-03T13:42:00.196Z,36.60
2023-05-03T13:44:26.963Z,37.50
2023-05-03T13:46:53.928Z,37.60
2023-05-03T13:49:21.110Z,37.50
2023-05-03T13:51:47.993Z,37.60
2023-05-03T13:54:14.671Z,37.60
2023-05-03T13:56:43.064Z,37.40
2023-05-03T13:59:12.355Z,37.40
2023-05-03T14:01:39.673Z,37.80
2023-05-03T14:04:06.620Z,36.60
2023-05-03T14:06:34.006Z,33.90
2023-05-03T14:09:01.623Z,30.10
2023-05-03T14:11:29.769Z,28.60
2023-05-03T14:13:57.756Z,27.00
2023-05-03T14:16:39.966Z,28.40
2023-05-03T14:19:10.077Z,30.20
2023-05-03T14:21:37.414Z,31.10
2023-05-03T14:24:04.431Z,32.20
2023-05-03T14:26:33.165Z,32.90
2023-05-03T14:28:59.884Z,34.20
2023-05-03T14:31:26.624Z,34.40
2023-05-03T14:33:53.581Z,35.10
2023-05-03T14:36:20.294Z,36.00
2023-05-03T14:38:47.696Z,36.40
2023-05-03T14:41:14.360Z,36.10
2023-05-03T14:43:41.029Z,35.70
2023-05-03T14:46:09.763Z,35.20
2023-05-03T14:48:38.138Z,35.20
2023-05-03T14:51:05.501Z,35.40
2023-05-03T14:53:32.449Z,35.50
2023-05-03T14:55:59.387Z,35.10
2023-05-03T14:58:26.135Z,34.90
2023-05-03T15:00:52.920Z,35.50
2023-05-03T15:03:19.747Z,35.70
2023-05-03T15:05:48.289Z,36.00
2023-05-03T15:08:17.543Z,36.60
2023-05-03T15:10:44.998Z,36.60
2023-05-03T15:13:12.722Z,36.40
2023-05-03T15:15:43.529Z,36.40
2023-05-03T15:18:10.915Z,36.40
2023-05-03T15:20:38.672Z,36.40
2023-05-03T15:23:06.125Z,36.30
2023-05-03T15:25:33.016Z,36.00
2023-05-03T15:28:03.878Z,35.60
2023-05-03T15:30:32.088Z,35.60
2023-05-03T15:32:58.991Z,34.90
2023-05-03T15:35:26.003Z,35.40
2023-05-03T15:37:52.791Z,35.10
2023-05-03T15:40:22.368Z,35.10
2023-05-03T15:42:50.465Z,35.20
2023-05-03T15:45:19.005Z,35.30
2023-05-03T15:47:46.171Z,34.60
2023-05-03T15:50:13.010Z,34.50
2023-05-03T15:52:39.789Z,34.20
2023-05-03T15:55:08.367Z,33.80
2023-05-03T15:57:35.633Z,33.20
2023-05-03T16:00:06.345Z,32.60
2023-05-03T16:02:33.328Z,32.40
2023-05-03T16:05:00.075Z,32.50
2023-05-03T16:07:26.889Z,32.50
2023-05-03T16:09:53.541Z,32.50
2023-05-03T16:12:20.152Z,32.40
2023-05-03T16:14:47.051Z,31.90
2023-05-03T16:17:13.635Z,30.20
2023-05-03T16:19:40.242Z,27.50
2023-05-03T16:22:06.923Z,26.10
2023-05-03T16:24:34.748Z,24.50
2023-05-03T16:27:02.009Z,23.00
2023-05-03T16:29:28.721Z,21.60
2023-05-03T16:31:55.981Z,21.00
2023-05-03T16:34:22.638Z,20.30
2023-05-03T16:36:49.289Z,19.80
2023-05-03T16:39:15.984Z,19.30
2023-05-03T16:41:42.555Z,19.20
2023-05-03T16:44:09.258Z,19.00
2023-05-03T16:46:36.492Z,18.80
2023-05-03T16:49:03.745Z,18.60
2023-05-03T16:51:31.501Z,18.50
2023-05-03T16:53:59.111Z,18.20
2023-05-03T16:56:26.289Z,18.20
2023-05-03T16:58:53.165Z,17.90
2023-05-03T17:01:19.828Z,17.90
2023-05-03T17:03:46.720Z,17.70
2023-05-03T17:06:13.468Z,17.60
2023-05-03T17:08:40.117Z,17.50
2023-05-03T17:11:07.866Z,17.50
2023-05-03T17:13:34.845Z,17.40
2023-05-03T17:16:10.399Z,17.30
2023-05-03T17:18:37.625Z,17.20
2023-05-03T17:21:04.801Z,17.20
2023-05-03T17:23:35.660Z,17.20
2023-05-03T17:26:04.293Z,17.20
2023-05-03T17:28:32.494Z,17.00
2023-05-03T17:30:59.279Z,17.00
2023-05-03T17:33:26.101Z,16.70
2023-05-03T17:35:53.316Z,16.70
2023-05-03T17:38:19.986Z,16.50
2023-05-03T17:40:46.739Z,16.50
2023-05-03T17:43:14.136Z,16.40
2023-05-03T17:45:41.851Z,19.00
2023-05-03T17:48:08.610Z,16.10
2023-05-03T17:50:35.297Z,16.10
2023-05-03T17:53:02.572Z,15.90
2023-05-03T17:55:29.528Z,15.70
2023-05-03T17:57:56.252Z,15.50
2023-05-03T18:00:23.009Z,15.30
2023-05-03T18:02:49.753Z,15.10
2023-05-03T18:05:16.861Z,15.00
2023-05-03T18:07:44.082Z,14.80
2023-05-03T18:10:15.483Z,14.60
2023-05-03T18:12:42.239Z,14.30
2023-05-03T18:15:09.463Z,14.20
2023-05-03T18:17:36.393Z,13.90
2023-05-03T18:20:05.470Z,13.80
2023-05-03T18:22:32.684Z,13.90
2023-05-03T18:25:01.948Z,13.60
2023-05-03T18:27:28.895Z,13.40
2023-05-03T18:29:55.496Z,13.30
2023-05-03T18:32:23.147Z,13.10
2023-05-03T18:34:52.527Z,13.00
2023-05-03T18:37:19.164Z,12.80
2023-05-03T18:39:45.735Z,12.70
2023-05-03T18:42:12.953Z,12.50
2023-05-03T18:44:39.685Z,12.30
2023-05-03T18:47:07.647Z,12.20
2023-05-03T18:49:34.300Z,12.10
2023-05-03T18:52:01.228Z,12.00
2023-05-03T18:54:27.922Z,11.90
2023-05-03T18:56:55.289Z,11.90
2023-05-03T18:59:21.967Z,11.70
2023-05-03T19:01:48.726Z,11.60
2023-05-03T19:04:15.697Z,11.60
2023-05-03T19:06:42.366Z,11.50
2023-05-03T19:09:11.699Z,11.40
2023-05-03T19:11:40.683Z,11.30
2023-05-03T19:14:07.284Z,11.20
2023-05-03T19:16:34.090Z,12.20
2023-05-03T19:19:01.260Z,11.00
2023-05-03T19:21:27.813Z,10.90
2023-05-03T19:23:54.383Z,10.90
2023-05-03T19:26:21.714Z,10.80
2023-05-03T19:28:48.338Z,10.60
2023-05-03T19:31:15.001Z,10.50
2023-05-03T19:33:41.647Z,10.50
2023-05-03T19:36:12.014Z,10.40
2023-05-03T19:38:38.605Z,10.30
2023-05-03T19:41:09.699Z,10.30
2023-05-03T19:43:36.324Z,10.30
2023-05-03T19:46:02.973Z,10.10
2023-05-03T19:48:29.672Z,9.90
2023-05-03T19:50:56.298Z,9.90
2023-05-03T19:53:23.607Z,13.70
2023-05-03T19:55:54.624Z,9.80
2023-05-03T19:58:21.353Z,9.70
2023-05-03T20:00:47.922Z,9.70
2023-05-03T20:03:14.579Z,9.60
2023-05-03T20:05:41.215Z,9.50
2023-05-03T20:08:07.802Z,9.30
2023-05-03T20:10:36.320Z,9.30
2023-05-03T20:13:04.046Z,9.30
2023-05-03T20:15:31.502Z,9.20
2023-05-03T20:17:58.568Z,9.10
2023-05-03T20:20:25.214Z,9.20
2023-05-03T20:22:51.917Z,9.10
2023-05-03T20:25:18.512Z,9.10
2023-05-03T20:27:45.194Z,9.00
2023-05-03T20:30:12.008Z,8.90
2023-05-03T20:32:39.170Z,8.90
2023-05-03T20:35:06.932Z,8.80
2023-05-03T20:37:33.566Z,8.80
2023-05-03T20:40:00.231Z,7.80
2023-05-03T20:42:26.900Z,8.70
2023-05-03T20:44:53.656Z,8.60
2023-05-03T20:47:20.335Z,8.60
2023-05-03T20:49:46.934Z,8.50
2023-05-03T20:52:13.541Z,8.60
2023-05-03T20:54:43.748Z,8.40
2023-05-03T20:57:12.475Z,8.40
2023-05-03T20:59:39.124Z,8.30
2023-05-03T21:02:06.270Z,8.30
2023-05-03T21:04:32.852Z,8.20
2023-05-03T21:06:59.414Z,8.10
2023-05-03T21:09:35.006Z,8.10
2023-05-03T21:12:01.698Z,8.40
2023-05-03T21:14:28.823Z,8.00
2023-05-03T21:16:55.719Z,7.80
2023-05-03T21:19:22.385Z,7.90
2023-05-03T21:21:52.088Z,7.90
2023-05-03T21:24:18.872Z,7.80
2023-05-03T21:26:45.459Z,7.70
2023-05-03T21:29:12.202Z,7.60
2023-05-03T21:31:40.304Z,7.60
2023-05-03T21:34:06.987Z,7.60
2023-05-03T21:36:33.628Z,7.50
2023-05-03T21:39:00.283Z,7.40
2023-05-03T21:41:27.016Z,7.40
2023-05-03T21:43:53.648Z,7.30
2023-05-03T21:46:20.260Z,7.30
2023-05-03T21:48:49.674Z,7.30
2023-05-03T21:51:17.469Z,7.30
2023-05-03T21:53:44.119Z,7.20
2023-05-03T21:56:10.710Z,7.20
2023-05-03T21:58:37.703Z,7.10
2023-05-03T22:01:04.281Z,7.20
2023-05-03T22:03:30.984Z,7.10
2023-05-03T22:05:57.654Z,7.00
2023-05-03T22:08:24.217Z,7.00
2023-05-03T22:10:50.891Z,7.00
2023-05-03T22:13:18.103Z,6.90
2023-05-03T22:15:50.930Z,6.90
2023-05-03T22:18:17.634Z,6.80
2023-05-03T22:20:44.265Z,6.80
2023-05-03T22:23:11.011Z,6.80
2023-05-03T22:25:39.938Z,6.60
2023-05-03T22:28:06.561Z,6.60
2023-05-03T22:30:33.140Z,6.60
2023-05-03T22:32:59.798Z,10.40
2023-05-03T22:35:26.655Z,6.50
2023-05-03T22:37:53.341Z,6.50
2023-05-03T22:40:19.931Z,6.40
2023-05-03T22:42:46.471Z,6.40
2023-05-03T22:45:13.137Z,6.40
2023-05-03T22:47:39.898Z,6.30
2023-05-03T22:50:07.647Z,6.30
2023-05-03T22:52:34.314Z,6.30
2023-05-03T22:55:01.346Z,6.30
2023-05-03T22:57:28.174Z,6.30
2023-05-03T22:59:55.285Z,6.30
2023-05-03T23:02:22.184Z,6.30
2023-05-03T23:04:48.983Z,6.30
2023-05-03T23:07:15.757Z,6.20
2023-05-03T23:09:42.395Z,6.20
2023-05-03T23:12:09.087Z,6.20
2023-05-03T23:14:36.383Z,6.10
2023-05-03T23:17:05.901Z,6.00
2023-05-03T23:19:33.823Z,6.00
2023-05-03T23:22:00.480Z,6.00
2023-05-03T23:24:27.267Z,5.90
2023-05-03T23:26:54.054Z,5.90
2023-05-03T23:29:21.130Z,5.80
2023-05-03T23:31:48.214Z,5.80
2023-05-03T23:34:15.433Z,5.80
2023-05-03T23:36:42.159Z,5.70
2023-05-03T23:39:08.839Z,5.60
2023-05-03T23:41:36.288Z,5.60
2023-05-03T23:44:03.690Z,5.60
2023-05-03T23:46:30.421Z,5.50
2023-05-03T23:48:57.110Z,5.50
2023-05-03T23:51:23.880Z,5.50
2023-05-03T23:53:53.644Z,5.50
2023-05-03T23:56:20.685Z,5.40
2023-05-03T23:58:47.342Z,5.40
